createdAt,value
2019-05-18T00:01:11.927Z,100418.75
2019-05-18T00:03:43.817Z,100423.05
2019-05-18T00:06:15.676Z,100416.20
2019-05-18T00:08:47.449Z,100432.36
2019-05-18T00:11:18.902Z,100431.44
2019-05-18T00:13:50.618Z,100429.48
2019-05-18T00:16:22.214Z,100435.94
2019-05-18T00:18:53.976Z,100435.11
2019-05-18T00:21:25.582Z,100437.90
2019-05-18T00:23:57.416Z,100437.90
2019-05-18T00:26:29.177Z,100434.52
2019-05-18T00:29:00.768Z,100438.05
2019-05-18T00:31:32.352Z,100436.85
2019-05-18T00:34:04.375Z,100431.70
2019-05-18T00:36:35.558Z,100437.67
2019-05-18T00:39:07.534Z,100430.19
2019-05-18T00:41:39.088Z,100434.48
2019-05-18T00:44:10.696Z,100435.08
2019-05-18T00:46:42.266Z,100436.82
2019-05-18T00:49:14.247Z,100428.06
2019-05-18T00:51:45.804Z,100427.52
2019-05-18T00:54:17.564Z,100431.13
2019-05-18T00:56:49.028Z,100431.38
2019-05-18T00:59:20.832Z,100432.69
2019-05-18T01:01:52.563Z,100422.34
2019-05-18T01:04:24.694Z,100427.84
2019-05-18T01:06:56.411Z,100423.97
2019-05-18T01:09:28.349Z,100411.65
2019-05-18T01:12:00.069Z,100415.66
2019-05-18T01:14:31.983Z,100402.52
2019-05-18T01:17:03.895Z,100407.88
2019-05-18T01:19:35.445Z,100406.95
2019-05-18T01:22:07.148Z,100402.48
2019-05-18T01:24:38.661Z,100405.95
2019-05-18T01:27:10.696Z,100410.36
2019-05-18T01:29:42.681Z,100410.50
2019-05-18T01:32:14.593Z,100411.05
2019-05-18T01:34:46.414Z,100415.98
2019-05-18T01:37:18.202Z,100406.23
2019-05-18T01:39:49.812Z,100413.37
2019-05-18T01:42:21.679Z,100414.62
2019-05-18T01:44:53.161Z,100411.13
2019-05-18T01:47:25.131Z,100413.22
2019-05-18T01:49:57.057Z,100413.04
2019-05-18T01:52:28.741Z,100402.94
2019-05-18T01:55:00.261Z,100401.58
2019-05-18T01:57:32.255Z,100400.52
2019-05-18T02:00:05.365Z,100410.11
2019-05-18T02:02:37.271Z,100415.00
2019-05-18T02:05:09.531Z,100400.70
2019-05-18T02:07:40.909Z,100403.66
2019-05-18T02:10:12.885Z,100408.33
2019-05-18T02:12:44.405Z,100407.05
2019-05-18T02:15:16.275Z,100407.55
2019-05-18T02:17:47.927Z,100403.55
2019-05-18T02:20:19.723Z,100403.95
2019-05-18T02:22:51.090Z,100407.80
2019-05-18T02:25:22.619Z,100406.55
2019-05-18T02:27:54.270Z,100414.08
2019-05-18T02:30:26.171Z,100409.86
2019-05-18T02:32:58.040Z,100411.98
2019-05-18T02:35:30.331Z,100408.28
2019-05-18T02:38:16.812Z,100409.89
2019-05-18T02:40:49.209Z,100408.09
2019-05-18T02:43:21.271Z,100407.37
2019-05-18T02:45:53.241Z,100412.11
2019-05-18T02:48:26.062Z,100421.06
2019-05-18T02:50:57.570Z,100425.92
2019-05-18T02:53:29.409Z,100427.34
2019-05-18T02:56:01.001Z,100427.68
2019-05-18T02:58:32.849Z,100431.48
2019-05-18T03:01:04.555Z,100433.56
2019-05-18T03:03:36.387Z,100430.02
2019-05-18T03:06:08.136Z,100429.36
2019-05-18T03:08:39.610Z,100421.17
2019-05-18T03:11:11.380Z,100425.20
2019-05-18T03:13:42.990Z,100418.28
2019-05-18T03:16:14.899Z,100419.36
2019-05-18T03:18:46.699Z,100423.14
2019-05-18T03:21:18.387Z,100412.09
2019-05-18T03:23:49.807Z,100413.20
2019-05-18T03:26:21.664Z,100414.29
2019-05-18T03:28:53.144Z,100416.27
2019-05-18T03:31:24.873Z,100410.14
2019-05-18T03:33:57.610Z,100393.44
2019-05-18T03:36:30.547Z,100410.22
2019-05-18T03:39:02.095Z,100402.87
2019-05-18T03:41:34.731Z,100403.73
2019-05-18T03:44:06.534Z,100404.91
2019-05-18T03:46:38.714Z,100399.39
2019-05-18T03:49:25.339Z,100397.20
2019-05-18T03:51:42.638Z,100400.91
2019-05-18T03:54:14.187Z,100396.59
2019-05-18T03:56:46.045Z,100409.20
2019-05-18T03:59:17.731Z,100398.44
2019-05-18T04:01:49.619Z,100402.64
2019-05-18T04:04:21.044Z,100386.27
2019-05-18T04:06:52.880Z,100391.83
2019-05-18T04:09:24.484Z,100386.64
2019-05-18T04:11:56.225Z,100384.55
2019-05-18T04:14:28.040Z,100389.99
2019-05-18T04:16:59.247Z,100386.16
2019-05-18T04:19:45.446Z,100389.02
2019-05-18T04:22:03.841Z,100392.17
2019-05-18T04:24:35.541Z,100391.73
2019-05-18T04:27:07.271Z,100393.98
2019-05-18T04:29:38.751Z,100404.92
2019-05-18T04:32:10.652Z,100409.75
2019-05-18T04:34:42.407Z,100412.03
2019-05-18T04:37:14.091Z,100401.11
2019-05-18T04:39:45.147Z,100403.65
2019-05-18T04:42:16.702Z,100399.87
2019-05-18T04:44:47.945Z,100405.09
2019-05-18T04:47:19.506Z,100392.41
2019-05-18T04:50:04.402Z,100413.01
2019-05-18T04:52:25.261Z,100399.33
2019-05-18T04:54:56.614Z,100395.33
2019-05-18T04:59:44.368Z,100399.13
2019-05-18T05:02:16.302Z,100394.53
2019-05-18T05:04:47.106Z,100399.98
2019-05-18T05:07:18.890Z,100408.59
2019-05-18T05:09:50.575Z,100402.38
2019-05-18T05:12:22.730Z,100400.67
2019-05-18T05:14:55.791Z,100404.84
2019-05-18T05:17:27.623Z,100396.28
2019-05-18T05:19:59.449Z,100402.55
2019-05-18T05:22:31.517Z,100399.25
2019-05-18T05:25:03.218Z,100397.17
2019-05-18T05:27:35.113Z,100407.78
2019-05-18T05:30:08.325Z,100409.80
2019-05-18T05:32:40.065Z,100404.48
2019-05-18T05:35:14.930Z,100414.60
2019-05-18T05:37:46.831Z,100404.45
2019-05-18T05:40:18.730Z,100394.30
2019-05-18T05:42:49.972Z,100398.16
2019-05-18T05:45:21.293Z,100404.99
2019-05-18T05:47:52.771Z,100400.05
2019-05-18T05:50:35.135Z,100399.27
2019-05-18T05:52:57.924Z,100392.12
2019-05-18T05:55:28.668Z,100385.23
2019-05-18T05:58:00.285Z,100388.53
2019-05-18T06:00:32.157Z,100392.05
2019-05-18T06:03:03.434Z,100394.56
2019-05-18T06:05:34.991Z,100391.48
2019-05-18T06:08:06.719Z,100385.11
2019-05-18T06:10:38.741Z,100378.02
2019-05-18T06:13:10.419Z,100376.51
2019-05-18T06:15:41.599Z,100369.23
2019-05-18T06:18:13.935Z,100375.41
2019-05-18T06:20:51.695Z,100360.20
2019-05-18T06:23:19.297Z,100366.37
2019-05-18T06:25:51.160Z,100350.33
2019-05-18T06:28:22.684Z,100349.73
2019-05-18T06:30:53.793Z,100360.37
2019-05-18T06:33:25.099Z,100342.91
2019-05-18T06:35:56.813Z,100353.69
2019-05-18T06:38:28.333Z,100351.75
2019-05-18T06:40:59.994Z,100350.41
2019-05-18T06:43:31.987Z,100354.78
2019-05-18T06:46:04.874Z,100361.27
2019-05-18T06:48:36.883Z,100354.83
2019-05-18T06:51:09.793Z,100362.08
2019-05-18T06:53:42.187Z,100360.72
2019-05-18T06:56:14.209Z,100357.16
2019-05-18T06:58:47.358Z,100358.48
2019-05-18T07:01:19.202Z,100352.66
2019-05-18T07:03:50.967Z,100347.94
2019-05-18T07:06:23.181Z,100361.58
2019-05-18T07:08:54.990Z,100349.39
2019-05-18T07:11:26.971Z,100352.92
2019-05-18T07:13:58.719Z,100356.39
2019-05-18T07:16:30.718Z,100350.83
2019-05-18T07:19:02.468Z,100342.50
2019-05-18T07:21:33.522Z,100346.88
2019-05-18T07:24:05.129Z,100347.84
2019-05-18T07:26:37.420Z,100353.06
2019-05-18T07:29:09.330Z,100352.33
2019-05-18T07:31:41.648Z,100354.41
2019-05-18T07:34:13.244Z,100357.13
2019-05-18T07:36:44.323Z,100364.48
2019-05-18T07:39:15.988Z,100355.09
2019-05-18T07:41:47.762Z,100363.02
2019-05-18T07:44:19.298Z,100366.30
2019-05-18T07:46:51.259Z,100352.04
2019-05-18T07:49:22.972Z,100357.36
2019-05-18T07:51:55.011Z,100358.19
2019-05-18T07:54:26.724Z,100355.19
2019-05-18T07:56:59.717Z,100355.45
2019-05-18T07:59:31.294Z,100355.81
2019-05-18T08:02:02.309Z,100356.16
2019-05-18T08:04:33.683Z,100357.35
2019-05-18T08:07:05.624Z,100340.02
2019-05-18T08:09:37.078Z,100355.91
2019-05-18T08:12:08.160Z,100358.64
2019-05-18T08:14:39.844Z,100347.50
2019-05-18T08:17:11.735Z,100346.09
2019-05-18T08:19:43.445Z,100358.72
2019-05-18T08:22:15.976Z,100354.92
2019-05-18T08:24:46.941Z,100356.64
2019-05-18T08:27:19.285Z,100353.82
2019-05-18T08:29:50.329Z,100347.38
2019-05-18T08:32:22.022Z,100344.40
2019-05-18T08:34:52.816Z,100348.90
2019-05-18T08:37:24.521Z,100345.13
2019-05-18T08:39:56.130Z,100352.80
2019-05-18T08:42:27.990Z,100340.19
2019-05-18T08:45:00.905Z,100344.53
2019-05-18T08:47:32.017Z,100332.69
2019-05-18T08:50:03.372Z,100332.11
2019-05-18T08:52:35.229Z,100337.27
2019-05-18T08:55:06.469Z,100332.66
2019-05-18T08:57:37.922Z,100344.20
2019-05-18T09:00:11.217Z,100319.39
2019-05-18T09:02:42.896Z,100326.61
2019-05-18T09:05:14.827Z,100318.06
2019-05-18T09:07:46.525Z,100321.63
2019-05-18T09:10:18.382Z,100330.50
2019-05-18T09:12:49.906Z,100294.41
2019-05-18T09:15:22.276Z,100300.44
2019-05-18T09:17:53.864Z,100307.26
2019-05-18T09:20:25.508Z,100309.70
2019-05-18T09:22:57.268Z,100307.23
2019-05-18T09:25:28.889Z,100311.13
2019-05-18T09:28:00.959Z,100305.37
2019-05-18T09:30:32.160Z,100305.34
2019-05-18T09:33:04.081Z,100288.23
2019-05-18T09:35:36.783Z,100290.64
2019-05-18T09:38:08.909Z,100297.24
2019-05-18T09:40:40.892Z,100308.97
2019-05-18T09:43:12.008Z,100314.08
2019-05-18T09:45:43.611Z,100306.19
2019-05-18T09:48:15.121Z,100293.14
2019-05-18T09:50:46.899Z,100286.83
2019-05-18T09:53:18.433Z,100273.27
2019-05-18T09:55:50.285Z,100296.43
2019-05-18T09:58:21.862Z,100280.06
2019-05-18T10:00:53.814Z,100268.86
2019-05-18T10:03:25.779Z,100271.45
2019-05-18T10:05:57.732Z,100277.53
2019-05-18T10:08:29.490Z,100296.15
2019-05-18T10:11:01.257Z,100275.28
2019-05-18T10:13:32.917Z,100265.33
2019-05-18T10:16:04.867Z,100301.13
2019-05-18T10:18:36.526Z,100257.28
2019-05-18T10:21:08.666Z,100250.07
2019-05-18T10:23:40.575Z,100259.27
2019-05-18T10:26:13.337Z,100254.73
2019-05-18T10:28:44.890Z,100284.05
2019-05-18T10:31:16.580Z,100262.30
2019-05-18T10:33:48.538Z,100255.74
2019-05-18T10:36:20.480Z,100271.37
2019-05-18T10:38:53.387Z,100260.01
2019-05-18T10:41:25.349Z,100241.64
2019-05-18T10:43:57.056Z,100243.39
2019-05-18T10:46:28.837Z,100243.34
2019-05-18T10:49:00.004Z,100245.81
2019-05-18T10:51:31.731Z,100243.53
2019-05-18T10:54:03.040Z,100235.96
2019-05-18T10:56:34.640Z,100253.55
2019-05-18T10:59:05.545Z,100242.77
2019-05-18T11:01:37.299Z,100242.81
2019-05-18T11:04:09.124Z,100236.58
2019-05-18T11:06:40.945Z,100235.12
2019-05-18T11:09:12.943Z,100239.34
2019-05-18T11:11:44.476Z,100231.56
2019-05-18T11:14:18.835Z,100230.03
2019-05-18T11:16:49.636Z,100236.44
2019-05-18T11:19:22.435Z,100251.89
2019-05-18T11:21:53.779Z,100229.59
2019-05-18T11:24:25.246Z,100226.13
2019-05-18T11:26:57.091Z,100225.50
2019-05-18T11:29:28.144Z,100219.80
2019-05-18T11:31:59.758Z,100228.88
2019-05-18T11:34:31.508Z,100232.72
2019-05-18T11:37:03.421Z,100225.48
2019-05-18T11:39:35.300Z,100220.16
2019-05-18T11:42:07.131Z,100210.14
2019-05-18T11:44:38.683Z,100204.25
2019-05-18T11:47:10.086Z,100209.98
2019-05-18T11:49:41.659Z,100206.24
2019-05-18T11:52:13.895Z,100198.79
2019-05-18T11:54:45.885Z,100202.60
2019-05-18T11:57:16.918Z,100191.25
2019-05-18T11:59:48.729Z,100204.53
2019-05-18T12:02:19.673Z,100186.33
2019-05-18T12:04:51.486Z,100184.54
2019-05-18T12:07:23.160Z,100169.83
2019-05-18T12:09:54.934Z,100174.77
2019-05-18T12:12:25.982Z,100173.86
2019-05-18T12:14:57.705Z,100174.73
2019-05-18T12:17:28.738Z,100176.56
2019-05-18T12:20:00.158Z,100163.61
2019-05-18T12:22:31.945Z,100162.02
2019-05-18T12:25:03.822Z,100148.91
2019-05-18T12:27:35.799Z,100163.34
2019-05-18T12:30:08.968Z,100155.76
2019-05-18T12:32:40.921Z,100142.96
2019-05-18T12:35:13.648Z,100147.38
2019-05-18T12:37:45.356Z,100140.77
2019-05-18T12:40:20.199Z,100142.77
2019-05-18T12:42:51.955Z,100137.13
2019-05-18T12:45:23.088Z,100142.48
2019-05-18T12:47:54.768Z,100125.95
2019-05-18T12:50:25.803Z,100141.05
2019-05-18T12:52:57.448Z,100134.11
2019-05-18T12:55:29.047Z,100139.19
2019-05-18T12:58:00.820Z,100112.60
2019-05-18T13:00:32.759Z,100132.84
2019-05-18T13:03:04.856Z,100130.38
2019-05-18T13:05:35.751Z,100133.05
2019-05-18T13:08:07.684Z,100118.33
2019-05-18T13:10:38.754Z,100126.58
2019-05-18T13:13:10.168Z,100125.20
2019-05-18T13:15:41.834Z,100130.11
2019-05-18T13:18:13.523Z,100124.18
2019-05-18T13:20:45.349Z,100124.59
2019-05-18T13:23:16.833Z,100119.08
2019-05-18T13:25:48.569Z,100133.59
2019-05-18T13:28:19.836Z,100123.94
2019-05-18T13:30:51.803Z,100130.04
2019-05-18T13:33:23.418Z,100134.72
2019-05-18T13:35:55.192Z,100110.02
2019-05-18T13:38:26.730Z,100121.52
2019-05-18T13:40:58.463Z,100109.27
2019-05-18T13:43:29.583Z,100123.22
2019-05-18T13:46:01.222Z,100128.02
2019-05-18T13:48:33.166Z,100129.03
2019-05-18T13:51:05.155Z,100118.23
2019-05-18T13:53:37.138Z,100123.65
2019-05-18T13:56:08.089Z,100126.89
2019-05-18T13:58:39.613Z,100116.09
2019-05-18T14:01:11.734Z,100122.75
2019-05-18T14:03:42.811Z,100122.27
2019-05-18T14:06:14.364Z,100120.38
2019-05-18T14:08:46.090Z,100116.25
2019-05-18T14:11:17.911Z,100118.52
2019-05-18T14:13:50.080Z,100118.06
2019-05-18T14:16:22.075Z,100115.42
2019-05-18T14:18:54.034Z,100111.22
2019-05-18T14:21:25.616Z,100111.69
2019-05-18T14:23:57.555Z,100102.74
2019-05-18T14:26:29.109Z,100106.59
2019-05-18T14:29:01.379Z,100103.27
2019-05-18T14:31:33.301Z,100104.50
2019-05-18T14:34:04.899Z,100106.47
2019-05-18T14:36:36.549Z,100107.22
2019-05-18T14:39:08.660Z,100094.52
2019-05-18T14:41:42.322Z,100110.28
2019-05-18T14:44:12.656Z,100096.84
2019-05-18T14:46:44.446Z,100090.81
2019-05-18T14:49:15.887Z,100085.07
2019-05-18T14:51:47.318Z,100088.36
2019-05-18T14:54:19.099Z,100084.61
2019-05-18T14:56:50.611Z,100078.48
2019-05-18T14:59:22.673Z,100087.76
2019-05-18T15:01:54.274Z,100085.72
2019-05-18T15:04:26.454Z,100083.45
2019-05-18T15:06:58.196Z,100087.11
2019-05-18T15:09:30.022Z,100084.08
2019-05-18T15:12:00.989Z,100085.84
2019-05-18T15:14:32.808Z,100079.76
2019-05-18T15:17:04.317Z,100073.45
2019-05-18T15:19:37.022Z,100078.06
2019-05-18T15:22:10.345Z,100065.48
2019-05-18T15:24:42.206Z,100072.42
2019-05-18T15:27:13.862Z,100074.25
2019-05-18T15:29:45.852Z,100067.81
2019-05-18T15:32:16.910Z,100062.08
2019-05-18T15:34:48.721Z,100069.63
2019-05-18T15:37:20.695Z,100054.88
2019-05-18T15:39:52.652Z,100062.84
2019-05-18T15:42:27.484Z,100050.78
2019-05-18T15:44:59.453Z,100058.77
2019-05-18T15:47:31.093Z,100067.61
2019-05-18T15:50:02.919Z,100068.78
2019-05-18T15:52:34.506Z,100065.83
2019-05-18T15:55:10.246Z,100068.89
2019-05-18T15:57:42.116Z,100064.77
2019-05-18T16:00:15.256Z,100080.83
2019-05-18T16:02:46.888Z,100080.33
2019-05-18T16:05:18.934Z,100078.70
2019-05-18T16:07:50.681Z,100075.70
2019-05-18T16:10:24.116Z,100082.89
2019-05-18T16:12:55.745Z,100077.15
2019-05-18T16:15:27.539Z,100075.83
2019-05-18T16:17:58.918Z,100079.70
2019-05-18T16:20:30.740Z,100073.67
2019-05-18T16:23:02.419Z,100083.88
2019-05-18T16:25:34.529Z,100089.98
2019-05-18T16:28:05.600Z,100087.81
2019-05-18T16:30:37.328Z,100091.42
2019-05-18T16:33:09.275Z,100090.63
2019-05-18T16:35:40.924Z,100095.05
2019-05-18T16:38:13.842Z,100095.59
2019-05-18T16:40:45.275Z,100101.09
2019-05-18T16:43:19.499Z,100103.05
2019-05-18T16:45:51.078Z,100104.96
2019-05-18T16:48:22.741Z,100097.85
2019-05-18T16:50:54.678Z,100102.53
2019-05-18T16:53:26.277Z,100105.55
2019-05-18T16:55:58.300Z,100105.84
2019-05-18T16:58:29.955Z,100099.23
2019-05-18T17:01:01.628Z,100097.87
2019-05-18T17:03:33.428Z,100098.09
2019-05-18T17:06:05.220Z,100104.95
2019-05-18T17:08:36.870Z,100103.03
2019-05-18T17:11:08.862Z,100108.52
2019-05-18T17:13:40.386Z,100107.66
2019-05-18T17:16:12.086Z,100109.04
2019-05-18T17:18:43.905Z,100110.40
2019-05-18T17:21:15.697Z,100108.73
2019-05-18T17:23:47.211Z,100112.31
2019-05-18T17:26:20.102Z,100114.22
2019-05-18T17:28:51.169Z,100110.91
2019-05-18T17:31:24.558Z,100114.73
2019-05-18T17:33:56.848Z,100126.49
2019-05-18T17:36:28.686Z,100126.76
2019-05-18T17:39:00.227Z,100133.27
2019-05-18T17:41:32.384Z,100148.05
2019-05-18T17:44:04.149Z,100146.66
2019-05-18T17:46:36.011Z,100149.66
2019-05-18T17:49:07.631Z,100152.37
2019-05-18T17:51:39.226Z,100156.72
2019-05-18T17:54:11.170Z,100152.28
2019-05-18T17:56:42.879Z,100152.55
2019-05-18T17:59:14.898Z,100163.20
2019-05-18T18:01:46.459Z,100166.44
2019-05-18T18:04:18.299Z,100161.99
2019-05-18T18:06:50.065Z,100161.99
2019-05-18T18:09:22.180Z,100164.95
2019-05-18T18:11:53.703Z,100163.55
2019-05-18T18:14:25.599Z,100162.43
2019-05-18T18:16:57.471Z,100152.70
2019-05-18T18:19:29.524Z,100160.95
2019-05-18T18:22:00.963Z,100162.79
2019-05-18T18:24:32.785Z,100164.70
2019-05-18T18:27:04.234Z,100168.46
2019-05-18T18:29:36.127Z,100170.00
2019-05-18T18:32:07.915Z,100170.54
2019-05-18T18:34:39.618Z,100168.83
2019-05-18T18:37:11.568Z,100173.69
2019-05-18T18:39:43.329Z,100184.57
2019-05-18T18:42:15.551Z,100183.44
2019-05-18T18:44:47.151Z,100181.72
2019-05-18T18:47:19.217Z,100171.23
2019-05-18T18:49:51.084Z,100174.42
2019-05-18T18:52:22.869Z,100183.37
2019-05-18T18:54:54.592Z,100183.50
2019-05-18T18:57:40.054Z,100189.13
2019-05-18T18:59:59.855Z,100189.02
2019-05-18T19:02:31.307Z,100183.84
2019-05-18T19:05:03.471Z,100185.90
2019-05-18T19:07:35.528Z,100185.79
2019-05-18T19:10:08.674Z,100189.89
2019-05-18T19:12:41.195Z,100183.75
2019-05-18T19:15:13.165Z,100185.34
2019-05-18T19:17:44.906Z,100186.14
2019-05-18T19:20:16.413Z,100188.50
2019-05-18T19:22:48.307Z,100178.62
2019-05-18T19:25:20.098Z,100186.73
2019-05-18T19:27:55.316Z,100183.63
2019-05-18T19:30:27.072Z,100180.16
2019-05-18T19:32:58.981Z,100175.77
2019-05-18T19:35:30.605Z,100174.32
2019-05-18T19:38:02.382Z,100186.58
2019-05-18T19:40:33.931Z,100181.85
2019-05-18T19:43:06.183Z,100182.19
2019-05-18T19:45:37.740Z,100182.56
2019-05-18T19:48:10.336Z,100184.95
2019-05-18T19:50:42.085Z,100187.62
2019-05-18T19:53:13.943Z,100189.51
2019-05-18T19:55:45.698Z,100187.45
2019-05-18T19:58:17.791Z,100186.94
2019-05-18T20:00:49.516Z,100161.94
2019-05-18T20:03:21.373Z,100192.20
2019-05-18T20:05:53.234Z,100191.23
2019-05-18T20:08:25.145Z,100191.48
2019-05-18T20:10:56.771Z,100195.23
2019-05-18T20:13:28.929Z,100195.98
2019-05-18T20:16:00.470Z,100194.56
2019-05-18T20:18:33.303Z,100198.77
2019-05-18T20:21:05.238Z,100195.09
2019-05-18T20:23:37.012Z,100201.30
2019-05-18T20:26:08.595Z,100204.66
2019-05-18T20:28:40.710Z,100203.47
2019-05-18T20:31:12.492Z,100206.70
2019-05-18T20:33:44.013Z,100199.95
2019-05-18T20:36:15.969Z,100200.98
2019-05-18T20:38:47.419Z,100204.81
2019-05-18T20:41:19.253Z,100204.16
2019-05-18T20:43:51.138Z,100196.77
2019-05-18T20:46:24.053Z,100199.19
2019-05-18T20:48:55.780Z,100204.06
2019-05-18T20:51:27.739Z,100201.53
2019-05-18T20:53:59.395Z,100205.22
2019-05-18T20:56:31.502Z,100203.48
2019-05-18T20:59:03.331Z,100198.73
2019-05-18T21:01:35.509Z,100214.24
2019-05-18T21:04:08.069Z,100214.24
2019-05-18T21:06:40.104Z,100215.41
2019-05-18T21:09:11.700Z,100219.00
2019-05-18T21:11:43.460Z,100216.70
2019-05-18T21:14:15.315Z,100214.98
2019-05-18T21:16:47.378Z,100213.86
2019-05-18T21:19:19.243Z,100215.91
2019-05-18T21:21:51.098Z,100220.86
2019-05-18T21:24:22.653Z,100220.04
2019-05-18T21:26:54.546Z,100218.04
2019-05-18T21:29:26.160Z,100213.20
2019-05-18T21:31:58.274Z,100213.20
2019-05-18T21:34:29.625Z,100218.46
2019-05-18T21:37:01.194Z,100215.25
2019-05-18T21:39:32.679Z,100223.31
2019-05-18T21:42:04.642Z,100215.65
2019-05-18T21:44:36.397Z,100185.71
2019-05-18T21:47:08.292Z,100221.55
2019-05-18T21:49:40.127Z,100220.19
2019-05-18T21:52:12.100Z,100215.91
2019-05-18T21:54:43.412Z,100217.89
2019-05-18T21:57:15.121Z,100217.74
2019-05-18T21:59:46.756Z,100222.64
2019-05-18T22:02:18.716Z,100223.03
2019-05-18T22:04:50.274Z,100223.20
2019-05-18T22:07:22.138Z,100227.27
2019-05-18T22:09:54.043Z,100230.66
2019-05-18T22:12:27.482Z,100226.87
2019-05-18T22:14:59.292Z,100223.33
2019-05-18T22:17:30.999Z,100222.95
2019-05-18T22:20:03.114Z,100231.17
2019-05-18T22:22:34.856Z,100227.42
2019-05-18T22:25:06.891Z,100237.28
2019-05-18T22:27:38.748Z,100236.30
2019-05-18T22:30:10.864Z,100235.61
2019-05-18T22:32:42.512Z,100232.52
2019-05-18T22:35:15.401Z,100229.52
2019-05-18T22:37:48.414Z,100228.98
2019-05-18T22:40:20.098Z,100223.97
2019-05-18T22:42:51.852Z,100215.12
2019-05-18T22:45:23.746Z,100222.89
2019-05-18T22:47:55.487Z,100226.30
2019-05-18T22:50:27.280Z,100220.92
2019-05-18T22:52:58.768Z,100227.54
2019-05-18T22:55:30.775Z,100230.69
2019-05-18T22:58:02.708Z,100221.56
2019-05-18T23:00:34.790Z,100229.61
2019-05-18T23:03:06.532Z,100222.88
2019-05-18T23:05:38.361Z,100226.87
2019-05-18T23:08:09.935Z,100226.70
2019-05-18T23:10:41.892Z,100229.34
2019-05-18T23:13:13.452Z,100226.63
2019-05-18T23:15:45.169Z,100228.53
2019-05-18T23:18:16.877Z,100230.75
2019-05-18T23:20:48.771Z,100227.55
2019-05-18T23:23:20.608Z,100225.38
2019-05-18T23:25:52.203Z,100229.23
2019-05-18T23:28:24.043Z,100225.30
2019-05-18T23:30:56.380Z,100228.02
2019-05-18T23:33:28.135Z,100234.97
2019-05-18T23:36:01.247Z,100234.63
2019-05-18T23:38:33.192Z,100240.36
2019-05-18T23:41:04.744Z,100238.40
2019-05-18T23:43:36.658Z,100232.55
2019-05-18T23:46:08.471Z,100229.02
2019-05-18T23:48:40.113Z,100236.70
2019-05-18T23:51:11.802Z,100235.03
2019-05-18T23:53:43.529Z,100242.83
2019-05-18T23:56:16.280Z,100239.48
2019-05-18T23:58:47.972Z,100247.69
